Time;durP1;ratioP1;P1;durP2;ratioP2;P2;SDS_P1;SDS_P2;PMS_P1;PMS_P2;Temp;Humidity;BMP_temperature;BMP_pressure;BME280_temperature;BME280_humidity;BME280_pressure;Samples;Min_cycle;Max_cycle;Signal;HPM_P1;HPM_P2
2021/09/10 06:01:03;;;;;;;1.98;0.90;;;18.30;99.90;;;;;;6232376;23;20020;-90
2021/09/10 06:03:30;;;;;;;3.53;1.48;;;18.30;99.90;;;;;;6204657;23;20017;-89
2021/09/10 06:05:57;;;;;;;4.03;1.42;;;18.30;99.90;;;;;;6179963;23;20017;-89
2021/09/10 06:08:24;;;;;;;4.47;1.13;;;18.30;99.90;;;;;;6179577;23;20342;-89
2021/09/10 06:10:51;;;;;;;2.40;1.25;;;18.30;99.90;;;;;;6204578;23;20044;-89
2021/09/10 06:13:18;;;;;;;3.75;1.70;;;18.30;99.90;;;;;;6204206;23;20017;-90
2021/09/10 06:15:45;;;;;;;4.13;1.23;;;18.40;99.90;;;;;;6180259;23;20016;-89
2021/09/10 06:18:13;;;;;;;2.65;1.50;;;18.40;99.90;;;;;;6203378;23;20009;-91
2021/09/10 06:20:40;;;;;;;2.78;1.35;;;18.40;99.90;;;;;;6204030;23;20023;-90
2021/09/10 06:23:07;;;;;;;1.92;0.95;;;18.40;99.90;;;;;;6179613;23;20088;-90
2021/09/10 06:25:34;;;;;;;7.03;1.77;;;18.50;99.90;;;;;;6203902;23;20091;-90
2021/09/10 06:28:01;;;;;;;5.35;1.20;;;18.40;99.90;;;;;;6179672;23;20048;-88
2021/09/10 06:30:28;;;;;;;2.90;1.35;;;18.50;99.90;;;;;;6203109;23;20315;-88
2021/09/10 06:32:55;;;;;;;2.20;1.00;;;18.60;99.90;;;;;;6182505;23;20017;-93
2021/09/10 06:35:23;;;;;;;4.05;1.40;;;18.60;99.90;;;;;;6179036;23;20017;-92
2021/09/10 06:37:52;;;;;;;3.35;1.40;;;18.70;99.90;;;;;;6179896;23;20028;-93
2021/09/10 06:40:19;;;;;;;3.25;1.48;;;18.70;99.90;;;;;;6178875;23;20445;-93
2021/09/10 06:42:46;;;;;;;3.67;1.48;;;18.70;99.90;;;;;;6178706;23;20346;-91
2021/09/10 06:45:16;;;;;;;3.30;1.25;;;18.70;99.90;;;;;;6203425;23;20016;-91
2021/09/10 06:47:43;;;;;;;3.75;1.48;;;18.80;99.90;;;;;;6204762;23;20017;-91
2021/09/10 06:50:11;;;;;;;1.77;0.80;;;18.80;99.90;;;;;;6202694;23;20017;-90
2021/09/10 06:52:40;;;;;;;3.50;1.63;;;18.80;99.90;;;;;;6202779;23;20070;-89
2021/09/10 06:55:08;;;;;;;3.65;1.60;;;18.80;99.90;;;;;;6203107;23;20095;-87
2021/09/10 06:57:36;;;;;;;2.83;1.58;;;18.90;99.90;;;;;;6201962;23;20021;-87
2021/09/10 07:00:05;;;;;;;6.03;1.63;;;18.90;99.90;;;;;;6202390;23;20456;-87
2021/09/10 07:02:32;;;;;;;4.70;1.58;;;18.90;99.90;;;;;;6202559;23;20028;-89
2021/09/10 07:04:58;;;;;;;2.92;1.40;;;18.90;99.90;;;;;;6178106;23;20048;-88
2021/09/10 07:07:25;;;;;;;2.70;1.30;;;19.00;99.90;;;;;;6178019;23;20334;-89
2021/09/10 07:09:52;;;;;;;4.15;1.27;;;18.90;99.90;;;;;;6178359;23;20510;-88
2021/09/10 07:12:20;;;;;;;2.50;1.48;;;18.90;99.90;;;;;;6178437;23;20028;-89
2021/09/10 07:14:46;;;;;;;2.70;1.30;;;19.00;99.90;;;;;;6153939;23;20013;-89
2021/09/10 07:17:13;;;;;;;1.13;0.75;;;19.00;99.90;;;;;;6178248;23;20395;-88
2021/09/10 07:19:40;;;;;;;3.50;1.60;;;19.00;99.90;;;;;;6153947;23;20032;-88
2021/09/10 07:22:07;;;;;;;2.42;1.17;;;19.00;99.90;;;;;;6153741;23;20063;-88
2021/09/10 07:24:34;;;;;;;2.03;0.95;;;19.10;99.90;;;;;;6153568;23;20052;-86
2021/09/10 07:27:01;;;;;;;2.40;1.15;;;19.10;99.90;;;;;;6153144;23;20013;-87
2021/09/10 07:29:29;;;;;;;3.33;1.50;;;19.20;99.90;;;;;;6177854;23;20017;-91
2021/09/10 07:31:56;;;;;;;2.60;1.30;;;19.20;99.90;;;;;;6203263;23;20069;-93
2021/09/10 07:34:31;;;;;;;2.70;1.10;;;19.20;99.90;;;;;;6203772;23;20024;-93
2021/09/10 07:36:59;;;;;;;3.67;1.33;;;19.30;99.90;;;;;;6204206;23;20345;-94
2021/09/10 07:39:26;;;;;;;2.80;1.35;;;19.30;99.90;;;;;;6202795;23;20013;-93
2021/09/10 07:41:56;;;;;;;2.88;1.13;;;19.40;99.90;;;;;;6203238;23;20456;-92
2021/09/10 07:44:27;;;;;;;2.55;1.08;;;19.40;99.90;;;;;;6179386;23;20013;-88
2021/09/10 07:46:57;;;;;;;1.75;0.85;;;19.60;99.90;;;;;;6178311;23;20071;-91
2021/09/10 07:49:24;;;;;;;2.90;1.05;;;19.70;99.90;;;;;;6203980;23;20017;-90
2021/09/10 07:51:59;;;;;;;1.80;1.08;;;19.60;99.90;;;;;;6179974;23;20036;-93
2021/09/10 07:54:26;;;;;;;4.00;1.38;;;19.70;99.90;;;;;;6203732;23;20433;-93
2021/09/10 07:56:53;;;;;;;4.45;1.73;;;19.70;99.90;;;;;;6179689;23;20016;-92
2021/09/10 07:59:32;;;;;;;3.20;1.55;;;19.70;99.90;;;;;;6178917;23;20013;-96
2021/09/10 08:40:05;;;;;;;5.40;1.58;;;20.80;99.90;;;;;;6261297;22;20021;-93
2021/09/10 08:42:58;;;;;;;26.15;1.25;;;20.90;99.90;;;;;;6235414;23;20013;-95
2021/09/10 08:45:29;;;;;;;4.68;1.70;;;20.90;99.90;;;;;;6215815;23;20012;-91
2021/09/10 08:47:59;;;;;;;4.80;1.33;;;21.00;99.90;;;;;;6236102;23;20475;-92
2021/09/10 08:50:26;;;;;;;3.92;1.30;;;21.00;99.90;;;;;;6210923;23;20323;-93
2021/09/10 08:52:53;;;;;;;4.05;1.60;;;21.10;99.90;;;;;;6234198;23;20492;-93
2021/09/10 08:55:20;;;;;;;4.20;1.60;;;21.10;99.90;;;;;;6234852;23;20016;-93
2021/09/10 08:57:52;;;;;;;4.03;1.45;;;21.10;99.90;;;;;;6233907;23;20051;-92
2021/09/10 09:00:28;;;;;;;2.45;1.40;;;21.10;99.90;;;;;;6236321;23;20023;-90
2021/09/10 09:03:09;;;;;;;4.50;1.60;;;21.20;99.90;;;;;;6236342;23;20013;-91
2021/09/10 09:05:37;;;;;;;4.60;1.58;;;21.30;99.90;;;;;;6235932;23;20080;-89
2021/09/10 09:08:17;;;;;;;2.97;0.98;;;21.30;99.90;;;;;;6235942;23;20014;-88
2021/09/10 09:11:04;;;;;;;3.47;1.40;;;21.30;99.90;;;;;;6236032;23;20019;-90
2021/09/10 09:13:32;;;;;;;5.68;2.20;;;21.20;99.90;;;;;;6214169;23;20013;-92
2021/09/10 09:16:31;;;;;;;5.00;1.90;;;21.20;99.90;;;;;;6207172;23;20017;-95
2021/09/10 09:19:04;;;;;;;3.75;1.67;;;21.20;99.90;;;;;;6206905;23;20535;-91
2021/09/10 09:21:41;;;;;;;4.50;1.50;;;21.10;99.90;;;;;;6206534;23;20072;-95
2021/09/10 09:24:18;;;;;;;4.78;1.70;;;21.10;99.90;;;;;;6183723;23;20037;-92
2021/09/10 09:26:52;;;;;;;6.47;1.85;;;21.10;99.90;;;;;;6232804;23;20083;-94
2021/09/10 09:29:20;;;;;;;5.35;2.03;;;21.10;99.90;;;;;;6183607;23;20023;-91
2021/09/10 09:32:00;;;;;;;3.90;1.35;;;21.10;99.90;;;;;;6230233;23;20020;-92
2021/09/10 09:34:49;;;;;;;3.80;1.08;;;21.20;99.90;;;;;;6208892;23;20073;-96
2021/09/10 09:37:19;;;;;;;2.63;1.48;;;21.20;99.90;;;;;;6207247;23;20075;-95
2021/09/10 09:39:59;;;;;;;2.92;1.25;;;21.20;99.90;;;;;;6209094;23;20096;-94
2021/09/10 09:42:35;;;;;;;4.93;1.52;;;21.30;99.90;;;;;;6207452;23;20048;-94
2021/09/10 09:45:12;;;;;;;4.43;1.63;;;21.20;99.90;;;;;;6231203;23;20013;-91
2021/09/10 09:47:45;;;;;;;6.50;2.42;;;21.30;99.90;;;;;;6206449;23;20023;-93
2021/09/10 09:50:15;;;;;;;4.78;2.33;;;21.40;99.90;;;;;;6206539;23;20017;-90
2021/09/10 09:52:48;;;;;;;4.18;1.45;;;21.50;99.90;;;;;;6205687;23;20017;-93
2021/09/10 09:55:15;;;;;;;2.90;1.40;;;21.60;99.90;;;;;;6206073;23;20017;-93
2021/09/10 09:57:43;;;;;;;3.17;1.30;;;21.60;99.90;;;;;;6207857;23;20012;-92
2021/09/10 10:00:13;;;;;;;7.32;1.77;;;21.60;99.90;;;;;;6208287;23;20465;-92
2021/09/10 10:02:59;;;;;;;3.95;1.52;;;21.70;99.90;;;;;;6206681;23;20016;-94
2021/09/10 10:05:32;;;;;;;2.40;1.25;;;21.80;99.90;;;;;;6187462;23;20024;-95
2021/09/10 10:08:09;;;;;;;2.90;1.30;;;21.90;99.90;;;;;;6207618;23;20016;-92
2021/09/10 10:10:49;;;;;;;2.25;0.90;;;22.10;99.90;;;;;;6207150;23;20569;-90
2021/09/10 10:13:35;;;;;;;3.13;1.10;;;22.30;99.90;;;;;;6206004;23;20020;-90
2021/09/10 10:16:02;;;;;;;;;;;22.40;99.90;;;;;;6205177;23;20099;-90
2021/09/10 10:18:42;;;;;;;3.70;1.73;;;22.50;99.90;;;;;;6205234;23;19916;-90
2021/09/10 10:21:14;;;;;;;1.67;0.98;;;22.50;99.90;;;;;;6205165;23;20063;-88
2021/09/10 10:23:59;;;;;;;2.38;1.08;;;22.60;99.90;;;;;;6204818;23;20013;-90
2021/09/10 10:26:36;;;;;;;;;;;22.70;99.90;;;;;;6205353;23;20016;-92
2021/09/10 10:29:07;;;;;;;2.88;1.20;;;22.80;99.90;;;;;;6204194;23;19916;-91
2021/09/10 10:32:04;;;;;;;3.83;1.45;;;22.90;99.90;;;;;;6229836;23;20100;-91
2021/09/10 10:34:33;;;;;;;2.95;1.30;;;22.90;99.90;;;;;;6204495;23;20017;-91
2021/09/10 10:37:00;;;;;;;4.05;1.27;;;22.80;99.90;;;;;;6204512;23;20013;-91
2021/09/10 10:39:31;;;;;;;2.05;1.15;;;22.80;99.90;;;;;;6155722;23;20020;-92
2021/09/10 10:42:03;;;;;;;3.42;1.30;;;22.90;99.90;;;;;;6204312;23;20044;-93
2021/09/10 10:44:36;;;;;;;4.35;1.23;;;22.90;99.90;;;;;;6206292;23;20387;-93
2021/09/10 10:47:07;;;;;;;2.30;1.17;;;23.10;99.90;;;;;;6205880;23;20047;-89
2021/09/10 10:49:37;;;;;;;3.88;1.60;;;23.10;99.90;;;;;;6206325;23;20013;-93
2021/09/10 10:52:23;;;;;;;2.85;1.42;;;23.20;99.90;;;;;;6182156;23;20016;-93
2021/09/10 10:55:13;;;;;;;;;;;23.20;99.90;;;;;;6205684;23;20013;-91
2021/09/10 10:57:40;;;;;;;4.07;1.67;;;23.20;99.90;;;;;;6205116;23;19916;-90
2021/09/10 11:00:28;;;;;;;2.92;1.17;;;23.30;99.90;;;;;;6180144;23;20033;-92
2021/09/10 11:03:16;;;;;;;4.18;1.58;;;23.10;99.90;;;;;;6204895;23;20429;-92
2021/09/10 11:05:56;;;;;;;2.15;1.02;;;23.10;99.90;;;;;;6205818;23;20091;-92
2021/09/10 11:08:42;;;;;;;2.20;1.10;;;23.10;99.90;;;;;;6181528;23;20067;-93
2021/09/10 11:11:10;;;;;;;3.72;1.00;;;23.10;99.90;;;;;;6205743;23;20017;-92
2021/09/10 11:13:41;;;;;;;3.40;1.45;;;23.10;99.90;;;;;;6181228;23;20381;-91
2021/09/10 11:16:09;;;;;;;3.60;1.25;;;23.00;99.90;;;;;;6204945;23;20023;-90
2021/09/10 11:18:40;;;;;;;3.60;1.55;;;23.20;99.90;;;;;;6205643;23;20009;-91
2021/09/10 11:21:09;;;;;;;2.95;1.42;;;23.30;99.90;;;;;;6229320;23;20008;-92
2021/09/10 11:23:43;;;;;;;3.13;1.02;;;23.30;99.90;;;;;;6205840;23;20031;-91
2021/09/10 11:26:13;;;;;;;2.58;1.13;;;23.30;99.90;;;;;;6204925;23;20044;-93
2021/09/10 11:28:40;;;;;;;1.95;1.02;;;23.30;99.90;;;;;;6182293;23;20044;-90
2021/09/10 11:31:08;;;;;;;3.47;1.10;;;23.30;99.90;;;;;;6204952;23;20094;-93
2021/09/10 11:33:43;;;;;;;2.20;1.05;;;23.20;99.90;;;;;;6206047;23;20025;-91
2021/09/10 11:36:21;;;;;;;;;;;23.30;99.90;;;;;;6205084;23;20394;-89
2021/09/10 11:38:48;;;;;;;3.60;1.52;;;23.30;99.90;;;;;;6205356;23;19987;-91
2021/09/10 11:41:15;;;;;;;4.40;1.60;;;23.40;99.90;;;;;;6204702;23;20017;-91
2021/09/10 11:43:42;;;;;;;5.80;1.30;;;23.40;99.90;;;;;;6180154;23;20013;-92
2021/09/10 11:46:11;;;;;;;4.28;1.52;;;23.70;99.90;;;;;;6180550;23;20056;-90
2021/09/10 11:48:46;;;;;;;4.88;1.63;;;23.40;99.90;;;;;;6205248;23;20446;-92
2021/09/10 11:51:14;;;;;;;3.33;1.40;;;23.40;99.90;;;;;;6204933;23;20013;-92
2021/09/10 11:53:47;;;;;;;3.72;1.33;;;23.50;99.90;;;;;;6204875;23;20116;-92
2021/09/10 11:56:17;;;;;;;2.88;1.27;;;23.70;99.90;;;;;;6204354;23;20015;-93
2021/09/10 11:58:48;;;;;;;2.45;1.23;;;23.90;99.90;;;;;;6204777;23;20456;-91
2021/09/10 12:01:26;;;;;;;3.92;1.00;;;24.00;99.90;;;;;;6204306;23;20013;-88
2021/09/10 12:03:58;;;;;;;2.53;1.33;;;24.20;99.90;;;;;;6182344;23;20013;-90
2021/09/10 12:06:31;;;;;;;3.63;1.63;;;24.20;99.90;;;;;;6204823;23;20021;-91
